sensor_id;sensor_type;location;lat;lon;timestamp;pressure;altitude;pressure_sealevel;temperature;humidity
18533;BME280;9396;51.510;11.934;2023-04-20T00:01:11;100907.75;;;5.58;100.00
18533;BME280;9396;51.510;11.934;2023-04-20T00:03:38;100908.97;;;5.78;100.00
18533;BME280;9396;51.510;11.934;2023-04-20T00:06:06;100912.56;;;5.77;100.00
18533;BME280;9396;51.510;11.934;2023-04-20T00:08:33;100910.56;;;5.80;100.00
18533;BME280;9396;51.510;11.934;2023-04-20T00:11:00;100910.91;;;5.99;100.00
18533;BME280;9396;51.510;11.934;2023-04-20T00:13:26;100897.44;;;5.91;100.00
18533;BME280;9396;51.510;11.934;2023-04-20T00:15:53;100902.47;;;5.58;100.00
18533;BME280;9396;51.510;11.934;2023-04-20T00:18:20;100902.16;;;5.50;100.00
18533;BME280;9396;51.510;11.934;2023-04-20T00:20:46;100899.34;;;5.53;100.00
18533;BME280;9396;51.510;11.934;2023-04-20T00:23:14;100899.13;;;5.43;100.00
18533;BME280;9396;51.510;11.934;2023-04-20T00:25:41;100900.91;;;5.43;100.00
18533;BME280;9396;51.510;11.934;2023-04-20T00:28:08;100898.78;;;5.61;100.00
18533;BME280;9396;51.510;11.934;2023-04-20T00:30:34;100889.22;;;5.47;100.00
18533;BME280;9396;51.510;11.934;2023-04-20T00:33:01;100891.97;;;5.33;100.00
18533;BME280;9396;51.510;11.934;2023-04-20T00:35:28;100890.25;;;5.57;100.00
18533;BME280;9396;51.510;11.934;2023-04-20T00:37:54;100889.31;;;5.94;100.00
18533;BME280;9396;51.510;11.934;2023-04-20T00:40:22;100878.81;;;6.16;100.00
18533;BME280;9396;51.510;11.934;2023-04-20T00:42:49;100880.22;;;6.33;100.00
18533;BME280;9396;51.510;11.934;2023-04-20T00:45:16;100874.81;;;6.34;100.00
18533;BME280;9396;51.510;11.934;2023-04-20T00:47:42;100876.22;;;6.27;100.00
18533;BME280;9396;51.510;11.934;2023-04-20T00:50:10;100870.06;;;6.50;100.00
18533;BME280;9396;51.510;11.934;2023-04-20T00:52:36;100869.22;;;6.15;100.00
18533;BME280;9396;51.510;11.934;2023-04-20T00:55:04;100874.50;;;6.15;100.00
18533;BME280;9396;51.510;11.934;2023-04-20T00:57:33;100866.03;;;5.99;100.00
18533;BME280;9396;51.510;11.934;2023-04-20T01:00:00;100859.66;;;6.25;100.00
18533;BME280;9396;51.510;11.934;2023-04-20T01:02:27;100860.50;;;5.79;100.00
18533;BME280;9396;51.510;11.934;2023-04-20T01:04:53;100862.53;;;5.99;100.00
18533;BME280;9396;51.510;11.934;2023-04-20T01:07:20;100857.31;;;6.10;100.00
18533;BME280;9396;51.510;11.934;2023-04-20T01:09:47;100846.59;;;6.35;100.00
18533;BME280;9396;51.510;11.934;2023-04-20T01:12:14;100859.59;;;6.49;100.00
18533;BME280;9396;51.510;11.934;2023-04-20T01:14:42;100861.19;;;6.74;100.00
18533;BME280;9396;51.510;11.934;2023-04-20T01:17:08;100854.19;;;6.50;100.00
18533;BME280;9396;51.510;11.934;2023-04-20T01:19:35;100852.53;;;5.91;100.00
18533;BME280;9396;51.510;11.934;2023-04-20T01:22:01;100849.78;;;5.93;100.00
18533;BME280;9396;51.510;11.934;2023-04-20T01:24:29;100853.78;;;5.98;100.00
18533;BME280;9396;51.510;11.934;2023-04-20T01:26:56;100847.88;;;5.95;100.00
18533;BME280;9396;51.510;11.934;2023-04-20T01:29:23;100852.88;;;6.10;100.00
18533;BME280;9396;51.510;11.934;2023-04-20T01:31:49;100847.66;;;6.32;100.00
18533;BME280;9396;51.510;11.934;2023-04-20T01:34:16;100845.81;;;6.57;100.00
18533;BME280;9396;51.510;11.934;2023-04-20T01:36:43;100846.06;;;6.65;100.00
18533;BME280;9396;51.510;11.934;2023-04-20T01:39:10;100848.44;;;6.68;100.00
18533;BME280;9396;51.510;11.934;2023-04-20T01:41:39;100832.00;;;6.86;100.00
18533;BME280;9396;51.510;11.934;2023-04-20T01:44:05;100844.34;;;6.53;100.00
18533;BME280;9396;51.510;11.934;2023-04-20T01:46:32;100839.94;;;6.18;100.00
18533;BME280;9396;51.510;11.934;2023-04-20T01:49:02;100848.44;;;6.11;100.00
18533;BME280;9396;51.510;11.934;2023-04-20T01:51:28;100840.81;;;6.41;100.00
18533;BME280;9396;51.510;11.934;2023-04-20T01:53:55;100837.28;;;6.53;100.00
18533;BME280;9396;51.510;11.934;2023-04-20T01:56:21;100839.53;;;6.46;100.00
18533;BME280;9396;51.510;11.934;2023-04-20T01:58:49;100843.44;;;5.95;100.00
18533;BME280;9396;51.510;11.934;2023-04-20T02:01:16;100834.00;;;6.38;100.00
18533;BME280;9396;51.510;11.934;2023-04-20T02:03:43;100827.31;;;6.68;100.00
18533;BME280;9396;51.510;11.934;2023-04-20T02:06:09;100831.41;;;6.83;100.00
18533;BME280;9396;51.510;11.934;2023-04-20T02:08:36;100836.19;;;6.56;100.00
18533;BME280;9396;51.510;11.934;2023-04-20T02:11:03;100839.53;;;6.46;100.00
18533;BME280;9396;51.510;11.934;2023-04-20T02:13:29;100834.22;;;6.01;100.00
18533;BME280;9396;51.510;11.934;2023-04-20T02:15:58;100835.88;;;5.91;100.00
18533;BME280;9396;51.510;11.934;2023-04-20T02:18:24;100839.09;;;5.83;100.00
18533;BME280;9396;51.510;11.934;2023-04-20T02:20:51;100836.84;;;5.54;100.00
18533;BME280;9396;51.510;11.934;2023-04-20T02:23:17;100841.28;;;5.53;100.00
18533;BME280;9396;51.510;11.934;2023-04-20T02:25:44;100841.25;;;5.89;100.00
18533;BME280;9396;51.510;11.934;2023-04-20T02:28:11;100839.16;;;6.05;100.00
18533;BME280;9396;51.510;11.934;2023-04-20T02:30:37;100833.50;;;6.33;100.00
18533;BME280;9396;51.510;11.934;2023-04-20T02:33:05;100834.22;;;6.24;100.00
18533;BME280;9396;51.510;11.934;2023-04-20T02:35:32;100829.16;;;6.32;100.00
18533;BME280;9396;51.510;11.934;2023-04-20T02:37:59;100829.22;;;6.55;100.00
18533;BME280;9396;51.510;11.934;2023-04-20T02:40:25;100823.72;;;6.69;100.00
18533;BME280;9396;51.510;11.934;2023-04-20T02:42:52;100823.72;;;6.80;100.00
18533;BME280;9396;51.510;11.934;2023-04-20T02:45:19;100831.44;;;6.26;100.00
18533;BME280;9396;51.510;11.934;2023-04-20T02:47:45;100831.09;;;6.30;100.00
18533;BME280;9396;51.510;11.934;2023-04-20T02:50:13;100832.00;;;6.53;100.00
18533;BME280;9396;51.510;11.934;2023-04-20T02:52:40;100835.63;;;6.74;100.00
18533;BME280;9396;51.510;11.934;2023-04-20T02:55:07;100829.25;;;6.88;100.00
18533;BME280;9396;51.510;11.934;2023-04-20T02:57:34;100833.94;;;6.62;100.00
18533;BME280;9396;51.510;11.934;2023-04-20T03:00:01;100838.81;;;6.56;100.00
18533;BME280;9396;51.510;11.934;2023-04-20T03:02:27;100835.41;;;6.31;100.00
18533;BME280;9396;51.510;11.934;2023-04-20T03:04:54;100835.22;;;6.45;100.00
18533;BME280;9396;51.510;11.934;2023-04-20T03:07:22;100843.03;;;6.47;100.00
18533;BME280;9396;51.510;11.934;2023-04-20T03:09:49;100836.13;;;6.22;100.00
18533;BME280;9396;51.510;11.934;2023-04-20T03:12:15;100843.69;;;6.27;100.00
18533;BME280;9396;51.510;11.934;2023-04-20T03:14:42;100835.53;;;6.30;100.00
18533;BME280;9396;51.510;11.934;2023-04-20T03:17:10;100832.59;;;6.11;100.00
18533;BME280;9396;51.510;11.934;2023-04-20T03:19:37;100833.94;;;5.93;100.00
18533;BME280;9396;51.510;11.934;2023-04-20T03:22:03;100834.13;;;6.02;100.00
18533;BME280;9396;51.510;11.934;2023-04-20T03:24:32;100840.13;;;6.04;100.00
18533;BME280;9396;51.510;11.934;2023-04-20T03:26:59;100839.84;;;5.96;100.00
18533;BME280;9396;51.510;11.934;2023-04-20T03:29:25;100837.06;;;6.21;100.00
18533;BME280;9396;51.510;11.934;2023-04-20T03:31:52;100836.41;;;6.41;100.00
18533;BME280;9396;51.510;11.934;2023-04-20T03:34:19;100846.28;;;6.62;100.00
18533;BME280;9396;51.510;11.934;2023-04-20T03:36:45;100845.88;;;6.33;100.00
18533;BME280;9396;51.510;11.934;2023-04-20T03:39:12;100845.53;;;6.48;100.00
18533;BME280;9396;51.510;11.934;2023-04-20T03:41:40;100845.56;;;6.60;100.00
18533;BME280;9396;51.510;11.934;2023-04-20T03:44:07;100843.75;;;6.14;100.00
18533;BME280;9396;51.510;11.934;2023-04-20T03:46:33;100843.50;;;6.06;100.00
18533;BME280;9396;51.510;11.934;2023-04-20T03:49:00;100834.88;;;5.68;100.00
18533;BME280;9396;51.510;11.934;2023-04-20T03:51:27;100844.00;;;5.64;100.00
18533;BME280;9396;51.510;11.934;2023-04-20T03:53:54;100848.09;;;5.44;100.00
18533;BME280;9396;51.510;11.934;2023-04-20T03:56:20;100847.00;;;5.47;100.00
18533;BME280;9396;51.510;11.934;2023-04-20T03:58:48;100844.13;;;5.50;100.00
18533;BME280;9396;51.510;11.934;2023-04-20T04:01:15;100840.88;;;5.46;100.00
18533;BME280;9396;51.510;11.934;2023-04-20T04:03:42;100840.81;;;5.59;100.00
18533;BME280;9396;51.510;11.934;2023-04-20T04:06:09;100838.56;;;5.42;100.00
18533;BME280;9396;51.510;11.934;2023-04-20T04:08:36;100845.56;;;5.67;100.00
18533;BME280;9396;51.510;11.934;2023-04-20T04:11:03;100832.88;;;5.48;100.00
18533;BME280;9396;51.510;11.934;2023-04-20T04:13:29;100846.72;;;5.63;100.00
18533;BME280;9396;51.510;11.934;2023-04-20T04:15:57;100848.88;;;5.81;100.00
18533;BME280;9396;51.510;11.934;2023-04-20T04:18:25;100849.09;;;6.02;100.00
18533;BME280;9396;51.510;11.934;2023-04-20T04:20:56;100847.06;;;6.29;100.00
18533;BME280;9396;51.510;11.934;2023-04-20T04:23:23;100843.50;;;6.52;100.00
18533;BME280;9396;51.510;11.934;2023-04-20T04:25:50;100839.69;;;6.21;100.00
18533;BME280;9396;51.510;11.934;2023-04-20T04:28:17;100835.00;;;6.14;100.00
18533;BME280;9396;51.510;11.934;2023-04-20T04:30:43;100841.84;;;6.16;100.00
18533;BME280;9396;51.510;11.934;2023-04-20T04:33:11;100841.44;;;6.44;100.00
18533;BME280;9396;51.510;11.934;2023-04-20T04:35:38;100837.97;;;6.55;100.00
18533;BME280;9396;51.510;11.934;2023-04-20T04:38:05;100834.75;;;6.63;100.00
18533;BME280;9396;51.510;11.934;2023-04-20T04:40:33;100843.41;;;6.65;100.00
18533;BME280;9396;51.510;11.934;2023-04-20T04:43:00;100842.06;;;6.59;100.00
18533;BME280;9396;51.510;11.934;2023-04-20T04:45:28;100843.91;;;6.81;100.00
18533;BME280;9396;51.510;11.934;2023-04-20T04:47:54;100854.97;;;6.86;100.00
18533;BME280;9396;51.510;11.934;2023-04-20T04:50:22;100857.00;;;6.82;100.00
18533;BME280;9396;51.510;11.934;2023-04-20T04:52:49;100851.72;;;6.93;100.00
18533;BME280;9396;51.510;11.934;2023-04-20T04:55:16;100858.75;;;6.48;100.00
18533;BME280;9396;51.510;11.934;2023-04-20T04:57:43;100863.53;;;6.43;100.00
18533;BME280;9396;51.510;11.934;2023-04-20T05:00:10;100857.47;;;6.19;100.00
18533;BME280;9396;51.510;11.934;2023-04-20T05:02:37;100864.69;;;6.28;100.00
18533;BME280;9396;51.510;11.934;2023-04-20T05:05:04;100859.69;;;6.36;100.00
18533;BME280;9396;51.510;11.934;2023-04-20T05:07:32;100859.63;;;6.60;100.00
18533;BME280;9396;51.510;11.934;2023-04-20T05:09:59;100863.63;;;6.88;100.00
18533;BME280;9396;51.510;11.934;2023-04-20T05:12:25;100869.59;;;6.68;100.00
18533;BME280;9396;51.510;11.934;2023-04-20T05:14:52;100861.84;;;6.31;100.00
18533;BME280;9396;51.510;11.934;2023-04-20T05:17:19;100870.16;;;6.14;100.00
18533;BME280;9396;51.510;11.934;2023-04-20T05:19:45;100876.19;;;6.16;100.00
18533;BME280;9396;51.510;11.934;2023-04-20T05:22:12;100876.47;;;6.24;100.00
18533;BME280;9396;51.510;11.934;2023-04-20T05:24:40;100876.22;;;6.27;100.00
18533;BME280;9396;51.510;11.934;2023-04-20T05:27:07;100868.50;;;6.59;100.00
18533;BME280;9396;51.510;11.934;2023-04-20T05:29:33;100871.19;;;6.24;100.00
18533;BME280;9396;51.510;11.934;2023-04-20T05:32:00;100884.28;;;6.02;100.00
18533;BME280;9396;51.510;11.934;2023-04-20T05:34:27;100873.72;;;6.26;100.00
18533;BME280;9396;51.510;11.934;2023-04-20T05:36:53;100884.16;;;6.27;100.00
18533;BME280;9396;51.510;11.934;2023-04-20T05:39:21;100882.38;;;6.04;100.00
18533;BME280;9396;51.510;11.934;2023-04-20T05:41:49;100881.09;;;6.10;100.00
18533;BME280;9396;51.510;11.934;2023-04-20T05:44:16;100886.59;;;6.41;100.00
18533;BME280;9396;51.510;11.934;2023-04-20T05:46:42;100897.81;;;6.21;100.00
18533;BME280;9396;51.510;11.934;2023-04-20T05:49:09;100900.41;;;6.45;100.00
18533;BME280;9396;51.510;11.934;2023-04-20T05:51:35;100899.56;;;6.44;100.00
18533;BME280;9396;51.510;11.934;2023-04-20T05:54:02;100895.84;;;6.12;100.00
18533;BME280;9396;51.510;11.934;2023-04-20T05:56:29;100894.22;;;6.22;100.00
18533;BME280;9396;51.510;11.934;2023-04-20T05:58:57;100898.88;;;6.53;100.00
18533;BME280;9396;51.510;11.934;2023-04-20T06:01:25;100904.94;;;6.32;100.00
18533;BME280;9396;51.510;11.934;2023-04-20T06:03:51;100905.13;;;5.94;100.00
18533;BME280;9396;51.510;11.934;2023-04-20T06:06:18;100912.53;;;5.89;100.00
18533;BME280;9396;51.510;11.934;2023-04-20T06:08:45;100916.25;;;6.10;100.00
18533;BME280;9396;51.510;11.934;2023-04-20T06:11:11;100916.56;;;5.70;100.00
18533;BME280;9396;51.510;11.934;2023-04-20T06:13:38;100918.53;;;5.91;100.00
18533;BME280;9396;51.510;11.934;2023-04-20T06:16:06;100913.94;;;6.06;100.00
18533;BME280;9396;51.510;11.934;2023-04-20T06:18:35;100909.47;;;6.19;100.00
18533;BME280;9396;51.510;11.934;2023-04-20T06:21:01;100924.28;;;6.09;100.00
18533;BME280;9396;51.510;11.934;2023-04-20T06:23:28;100921.66;;;5.73;100.00
18533;BME280;9396;51.510;11.934;2023-04-20T06:25:55;100930.00;;;5.67;100.00
18533;BME280;9396;51.510;11.934;2023-04-20T06:28:21;100924.97;;;6.00;100.00
18533;BME280;9396;51.510;11.934;2023-04-20T06:30:48;100929.44;;;5.87;100.00
18533;BME280;9396;51.510;11.934;2023-04-20T06:33:16;100924.63;;;6.04;100.00
18533;BME280;9396;51.510;11.934;2023-04-20T06:35:43;100927.69;;;5.98;100.00
18533;BME280;9396;51.510;11.934;2023-04-20T06:38:09;100927.88;;;6.08;100.00
18533;BME280;9396;51.510;11.934;2023-04-20T06:40:36;100931.31;;;5.97;100.00
18533;BME280;9396;51.510;11.934;2023-04-20T06:43:03;100933.78;;;6.11;100.00
18533;BME280;9396;51.510;11.934;2023-04-20T06:45:29;100931.44;;;5.96;100.00
18533;BME280;9396;51.510;11.934;2023-04-20T06:47:56;100939.81;;;6.13;100.00
18533;BME280;9396;51.510;11.934;2023-04-20T06:50:24;100935.00;;;6.18;100.00
18533;BME280;9396;51.510;11.934;2023-04-20T06:52:51;100937.44;;;5.98;100.00
18533;BME280;9396;51.510;11.934;2023-04-20T06:55:17;100933.28;;;6.06;100.00
18533;BME280;9396;51.510;11.934;2023-04-20T06:57:45;100932.88;;;6.23;100.00
18533;BME280;9396;51.510;11.934;2023-04-20T07:00:12;100936.47;;;6.22;100.00
18533;BME280;9396;51.510;11.934;2023-04-20T07:02:43;100939.19;;;6.33;100.00
18533;BME280;9396;51.510;11.934;2023-04-20T07:05:10;100942.19;;;6.40;100.00
18533;BME280;9396;51.510;11.934;2023-04-20T07:07:39;100947.31;;;6.30;100.00
18533;BME280;9396;51.510;11.934;2023-04-20T07:10:06;100930.69;;;6.17;100.00
18533;BME280;9396;51.510;11.934;2023-04-20T07:12:33;100883.91;;;6.19;100.00
18533;BME280;9396;51.510;11.934;2023-04-20T07:15:01;100934.72;;;6.69;100.00
18533;BME280;9396;51.510;11.934;2023-04-20T07:17:28;100929.41;;;7.25;100.00
18533;BME280;9396;51.510;11.934;2023-04-20T07:19:54;100926.78;;;7.47;100.00
18533;BME280;9396;51.510;11.934;2023-04-20T07:22:22;100930.25;;;7.70;100.00
18533;BME280;9396;51.510;11.934;2023-04-20T07:24:50;100935.78;;;7.67;100.00
18533;BME280;9396;51.510;11.934;2023-04-20T07:27:17;100927.03;;;8.41;100.00
18533;BME280;9396;51.510;11.934;2023-04-20T07:29:43;100920.88;;;8.72;100.00
18533;BME280;9396;51.510;11.934;2023-04-20T07:32:10;100934.25;;;8.71;98.23
18533;BME280;9396;51.510;11.934;2023-04-20T07:34:36;100927.69;;;9.16;97.33
18533;BME280;9396;51.510;11.934;2023-04-20T07:37:03;100931.00;;;8.46;93.49
18533;BME280;9396;51.510;11.934;2023-04-20T07:39:30;100931.69;;;7.63;95.32
18533;BME280;9396;51.510;11.934;2023-04-20T07:41:58;100951.91;;;7.31;97.31
18533;BME280;9396;51.510;11.934;2023-04-20T07:44:24;100945.56;;;6.77;98.66
18533;BME280;9396;51.510;11.934;2023-04-20T07:46:51;100951.38;;;6.82;100.00
18533;BME280;9396;51.510;11.934;2023-04-20T07:49:19;100956.78;;;6.91;100.00
18533;BME280;9396;51.510;11.934;2023-04-20T07:51:45;100954.41;;;6.99;99.09
18533;BME280;9396;51.510;11.934;2023-04-20T07:54:12;100958.34;;;6.59;100.00
18533;BME280;9396;51.510;11.934;2023-04-20T07:56:38;100945.91;;;6.72;100.00
18533;BME280;9396;51.510;11.934;2023-04-20T07:59:07;100953.25;;;6.69;100.00
18533;BME280;9396;51.510;11.934;2023-04-20T08:01:34;100942.59;;;6.92;100.00
18533;BME280;9396;51.510;11.934;2023-04-20T08:04:01;100948.00;;;6.80;100.00
18533;BME280;9396;51.510;11.934;2023-04-20T08:06:27;100959.38;;;6.80;100.00
18533;BME280;9396;51.510;11.934;2023-04-20T08:08:54;100936.22;;;6.95;99.82
18533;BME280;9396;51.510;11.934;2023-04-20T08:11:20;100945.44;;;6.78;98.94
18533;BME280;9396;51.510;11.934;2023-04-20T08:13:48;100943.44;;;6.93;98.68
18533;BME280;9396;51.510;11.934;2023-04-20T08:16:16;100943.84;;;7.21;99.41
18533;BME280;9396;51.510;11.934;2023-04-20T08:18:43;100932.16;;;7.46;98.63
18533;BME280;9396;51.510;11.934;2023-04-20T08:21:10;100930.03;;;7.51;96.96
18533;BME280;9396;51.510;11.934;2023-04-20T08:23:36;100939.13;;;7.80;98.63
18533;BME280;9396;51.510;11.934;2023-04-20T08:26:03;100943.25;;;8.27;98.60
18533;BME280;9396;51.510;11.934;2023-04-20T08:28:30;100955.84;;;7.70;96.57
18533;BME280;9396;51.510;11.934;2023-04-20T08:30:56;100952.75;;;7.53;97.49
18533;BME280;9396;51.510;11.934;2023-04-20T08:33:24;100956.38;;;7.64;98.33
18533;BME280;9396;51.510;11.934;2023-04-20T08:35:51;100958.03;;;7.87;99.59
18533;BME280;9396;51.510;11.934;2023-04-20T08:38:18;100964.28;;;7.75;96.08
18533;BME280;9396;51.510;11.934;2023-04-20T08:40:45;100953.34;;;7.46;95.42
18533;BME280;9396;51.510;11.934;2023-04-20T08:43:12;100961.41;;;7.55;97.19
18533;BME280;9396;51.510;11.934;2023-04-20T08:45:40;100954.78;;;7.83;97.04
18533;BME280;9396;51.510;11.934;2023-04-20T08:48:10;100959.72;;;7.43;95.25
18533;BME280;9396;51.510;11.934;2023-04-20T08:50:41;100952.13;;;7.83;97.62
18533;BME280;9396;51.510;11.934;2023-04-20T08:53:07;100937.28;;;8.03;94.10
18533;BME280;9396;51.510;11.934;2023-04-20T08:55:35;100941.19;;;8.30;92.74
18533;BME280;9396;51.510;11.934;2023-04-20T08:58:01;100944.81;;;8.18;92.75
18533;BME280;9396;51.510;11.934;2023-04-20T09:00:28;100945.25;;;7.92;93.13
18533;BME280;9396;51.510;11.934;2023-04-20T09:02:55;100938.84;;;7.94;92.06
18533;BME280;9396;51.510;11.934;2023-04-20T09:05:24;100946.88;;;8.15;91.99
18533;BME280;9396;51.510;11.934;2023-04-20T09:07:54;100941.78;;;8.34;92.35
18533;BME280;9396;51.510;11.934;2023-04-20T09:10:21;100938.88;;;8.37;92.31
18533;BME280;9396;51.510;11.934;2023-04-20T09:12:49;100945.63;;;8.61;92.53
18533;BME280;9396;51.510;11.934;2023-04-20T09:15:24;100953.97;;;8.78;92.15
18533;BME280;9396;51.510;11.934;2023-04-20T09:17:51;100954.50;;;8.72;90.64
18533;BME280;9396;51.510;11.934;2023-04-20T09:20:27;100954.03;;;8.35;89.22
18533;BME280;9396;51.510;11.934;2023-04-20T09:22:55;100956.38;;;8.28;89.82
18533;BME280;9396;51.510;11.934;2023-04-20T09:25:23;100786.84;;;7.43;92.48
18533;BME280;9396;51.510;11.934;2023-04-20T09:27:56;100952.69;;;8.40;91.17
18533;BME280;9396;51.510;11.934;2023-04-20T09:30:23;100960.47;;;8.32;91.24
18533;BME280;9396;51.510;11.934;2023-04-20T09:33:00;100953.28;;;8.44;91.95
18533;BME280;9396;51.510;11.934;2023-04-20T09:35:26;100952.47;;;8.43;91.56
18533;BME280;9396;51.510;11.934;2023-04-20T09:37:54;100956.75;;;8.55;92.14
18533;BME280;9396;51.510;11.934;2023-04-20T09:40:22;100954.44;;;8.62;91.59
18533;BME280;9396;51.510;11.934;2023-04-20T09:42:50;100959.22;;;8.89;92.22
18533;BME280;9396;51.510;11.934;2023-04-20T09:45:19;100954.56;;;9.02;90.65
18533;BME280;9396;51.510;11.934;2023-04-20T09:47:46;100948.00;;;8.76;90.94
18533;BME280;9396;51.510;11.934;2023-04-20T09:50:15;100946.22;;;9.06;92.26
18533;BME280;9396;51.510;11.934;2023-04-20T09:52:42;100941.75;;;9.37;91.30
18533;BME280;9396;51.510;11.934;2023-04-20T09:55:11;100942.44;;;9.29;90.28
18533;BME280;9396;51.510;11.934;2023-04-20T09:57:38;100946.88;;;8.99;89.13
18533;BME280;9396;51.510;11.934;2023-04-20T10:00:06;100934.22;;;9.32;90.68
18533;BME280;9396;51.510;11.934;2023-04-20T10:02:35;100947.44;;;9.23;88.23
18533;BME280;9396;51.510;11.934;2023-04-20T10:05:02;100946.41;;;9.14;86.56
18533;BME280;9396;51.510;11.934;2023-04-20T10:07:30;100941.53;;;9.19;88.69
18533;BME280;9396;51.510;11.934;2023-04-20T10:10:08;100949.09;;;9.24;88.34
18533;BME280;9396;51.510;11.934;2023-04-20T10:12:48;100942.75;;;9.36;90.87
18533;BME280;9396;51.510;11.934;2023-04-20T10:15:14;100941.13;;;9.24;89.32
18533;BME280;9396;51.510;11.934;2023-04-20T10:17:42;100939.53;;;9.12;90.13
18533;BME280;9396;51.510;11.934;2023-04-20T10:20:20;100946.13;;;9.38;90.21
18533;BME280;9396;51.510;11.934;2023-04-20T10:22:46;100929.97;;;9.60;91.28
18533;BME280;9396;51.510;11.934;2023-04-20T10:25:15;100939.75;;;9.50;90.38
18533;BME280;9396;51.510;11.934;2023-04-20T10:27:53;100929.97;;;9.50;89.36
18533;BME280;9396;51.510;11.934;2023-04-20T10:30:21;100782.91;;;8.93;89.96
18533;BME280;9396;51.510;11.934;2023-04-20T10:32:48;100928.69;;;9.94;88.20
18533;BME280;9396;51.510;11.934;2023-04-20T10:35:14;100926.13;;;9.73;86.07
18533;BME280;9396;51.510;11.934;2023-04-20T10:37:46;100869.72;;;9.51;87.15
18533;BME280;9396;51.510;11.934;2023-04-20T10:40:14;100928.47;;;9.67;86.85
18533;BME280;9396;51.510;11.934;2023-04-20T10:42:41;100922.72;;;9.62;87.75
18533;BME280;9396;51.510;11.934;2023-04-20T10:45:10;100926.03;;;9.54;87.52
18533;BME280;9396;51.510;11.934;2023-04-20T10:47:37;100916.84;;;9.58;87.61
18533;BME280;9396;51.510;11.934;2023-04-20T10:50:07;100919.22;;;9.52;88.30
18533;BME280;9396;51.510;11.934;2023-04-20T10:52:34;100918.28;;;9.72;89.49
18533;BME280;9396;51.510;11.934;2023-04-20T10:55:02;100915.91;;;9.69;87.78
18533;BME280;9396;51.510;11.934;2023-04-20T10:57:29;100915.03;;;9.59;86.40
18533;BME280;9396;51.510;11.934;2023-04-20T10:59:55;100913.34;;;9.58;85.99
18533;BME280;9396;51.510;11.934;2023-04-20T11:02:23;100914.59;;;9.54;86.09
18533;BME280;9396;51.510;11.934;2023-04-20T11:04:50;100903.69;;;9.57;86.18
18533;BME280;9396;51.510;11.934;2023-04-20T11:07:17;100907.06;;;9.59;85.40
18533;BME280;9396;51.510;11.934;2023-04-20T11:09:52;100898.56;;;9.74;86.08
18533;BME280;9396;51.510;11.934;2023-04-20T11:12:19;100892.03;;;9.88;85.38
18533;BME280;9396;51.510;11.934;2023-04-20T11:14:50;100887.97;;;9.94;86.03
18533;BME280;9396;51.510;11.934;2023-04-20T11:17:17;100879.31;;;10.01;84.58
18533;BME280;9396;51.510;11.934;2023-04-20T11:19:45;100869.41;;;10.03;83.76
18533;BME280;9396;51.510;11.934;2023-04-20T11:22:20;100878.63;;;9.90;81.97
18533;BME280;9396;51.510;11.934;2023-04-20T11:24:47;100882.91;;;9.81;80.68
18533;BME280;9396;51.510;11.934;2023-04-20T11:27:18;100868.28;;;9.96;81.87
18533;BME280;9396;51.510;11.934;2023-04-20T11:29:54;100869.41;;;10.03;80.61
18533;BME280;9396;51.510;11.934;2023-04-20T11:32:21;100861.13;;;9.87;80.96
18533;BME280;9396;51.510;11.934;2023-04-20T11:34:57;100863.34;;;9.72;82.00
18533;BME280;9396;51.510;11.934;2023-04-20T11:37:24;100865.75;;;9.95;82.34
18533;BME280;9396;51.510;11.934;2023-04-20T11:39:58;100859.19;;;10.08;83.04
18533;BME280;9396;51.510;11.934;2023-04-20T11:42:25;100854.56;;;9.91;82.40
18533;BME280;9396;51.510;11.934;2023-04-20T11:44:51;100854.28;;;9.94;82.67
18533;BME280;9396;51.510;11.934;2023-04-20T11:47:18;100855.41;;;10.01;84.24
18533;BME280;9396;51.510;11.934;2023-04-20T11:49:45;100847.06;;;10.25;83.56
18533;BME280;9396;51.510;11.934;2023-04-20T11:52:13;100849.56;;;10.26;84.04
18533;BME280;9396;51.510;11.934;2023-04-20T11:54:40;100851.75;;;9.93;83.25
18533;BME280;9396;51.510;11.934;2023-04-20T11:57:07;100851.44;;;9.57;83.05
18533;BME280;9396;51.510;11.934;2023-04-20T11:59:34;100848.34;;;9.62;84.43
18533;BME280;9396;51.510;11.934;2023-04-20T12:02:00;100843.88;;;9.72;83.27
18533;BME280;9396;51.510;11.934;2023-04-20T12:04:28;100846.81;;;9.59;82.66
18533;BME280;9396;51.510;11.934;2023-04-20T12:06:55;100851.41;;;9.48;82.32
18533;BME280;9396;51.510;11.934;2023-04-20T12:09:24;100861.34;;;9.55;82.48
18533;BME280;9396;51.510;11.934;2023-04-20T12:11:51;100868.94;;;9.30;83.10
18533;BME280;9396;51.510;11.934;2023-04-20T12:14:17;100862.34;;;9.24;83.60
18533;BME280;9396;51.510;11.934;2023-04-20T12:16:44;100866.66;;;9.16;84.65
18533;BME280;9396;51.510;11.934;2023-04-20T12:19:11;100865.44;;;9.20;85.95
18533;BME280;9396;51.510;11.934;2023-04-20T12:21:37;100868.97;;;9.00;86.12
18533;BME280;9396;51.510;11.934;2023-04-20T12:24:04;100864.66;;;9.08;86.58
18533;BME280;9396;51.510;11.934;2023-04-20T12:26:33;100879.63;;;8.89;86.94
18533;BME280;9396;51.510;11.934;2023-04-20T12:29:00;100879.47;;;8.81;88.05
18533;BME280;9396;51.510;11.934;2023-04-20T12:31:27;100881.16;;;8.61;89.04
18533;BME280;9396;51.510;11.934;2023-04-20T12:33:53;100886.06;;;8.65;90.03
18533;BME280;9396;51.510;11.934;2023-04-20T12:36:20;100878.13;;;8.45;90.70
18533;BME280;9396;51.510;11.934;2023-04-20T12:38:49;100883.94;;;8.59;91.71
18533;BME280;9396;51.510;11.934;2023-04-20T12:41:18;100881.34;;;8.48;91.13
18533;BME280;9396;51.510;11.934;2023-04-20T12:43:46;100879.84;;;8.35;91.27
18533;BME280;9396;51.510;11.934;2023-04-20T12:46:12;100868.56;;;8.33;91.69
18533;BME280;9396;51.510;11.934;2023-04-20T12:48:39;100872.41;;;8.49;92.24
18533;BME280;9396;51.510;11.934;2023-04-20T12:51:05;100868.41;;;8.76;92.15
18533;BME280;9396;51.510;11.934;2023-04-20T12:53:32;100865.50;;;8.58;91.73